Time;durP1;ratioP1;P1;durP2;ratioP2;P2;SDS_P1;SDS_P2;PMS_P1;PMS_P2;Temp;Humidity;BMP_temperature;BMP_pressure;BME280_temperature;BME280_humidity;BME280_pressure;Samples;Min_cycle;Max_cycle;Signal;HPM_P1;HPM_P2
2021/08/20 00:00:32;;;;;;;7.80;5.17;;;22.70;64.10;;;;;;5093004;28;20204;-67
2021/08/20 00:03:05;;;;;;;7.47;5.80;;;22.70;64.10;;;;;;5088796;28;20219;-67
2021/08/20 00:05:34;;;;;;;7.03;5.00;;;22.70;64.10;;;;;;5104373;28;20331;-68
2021/08/20 00:08:05;;;;;;;7.23;4.87;;;22.70;64.20;;;;;;5091412;28;20532;-67
2021/08/20 00:10:36;;;;;;;6.70;4.70;;;22.70;64.10;;;;;;5101055;28;20298;-68
2021/08/20 00:13:08;;;;;;;6.27;4.47;;;22.70;64.20;;;;;;5103713;28;20193;-67
2021/08/20 00:15:36;;;;;;;7.93;5.10;;;22.70;64.10;;;;;;5080650;28;20632;-66
2021/08/20 00:18:06;;;;;;;6.70;4.67;;;22.70;64.10;;;;;;5081567;28;20247;-67
2021/08/20 00:20:34;;;;;;;5.77;4.43;;;22.70;64.10;;;;;;5100052;28;20206;-67
2021/08/20 00:23:06;;;;;;;5.93;4.80;;;22.70;64.00;;;;;;5099661;28;20212;-67
2021/08/20 00:25:34;;;;;;;7.03;4.67;;;22.70;64.10;;;;;;5087478;28;20234;-67
2021/08/20 00:28:03;;;;;;;5.83;4.17;;;22.70;64.00;;;;;;5096366;28;20224;-67
2021/08/20 00:30:34;;;;;;;7.63;4.27;;;22.70;64.00;;;;;;5088590;28;20201;-67
2021/08/20 00:33:05;;;;;;;6.00;4.70;;;22.70;64.00;;;;;;5074669;28;20193;-67
2021/08/20 00:35:36;;;;;;;6.27;4.27;;;22.70;63.90;;;;;;5107229;28;20602;-67
2021/08/20 00:38:05;;;;;;;5.57;4.23;;;22.70;64.00;;;;;;5094163;28;20218;-67
2021/08/20 00:40:34;;;;;;;5.33;3.93;;;22.70;63.90;;;;;;5106862;28;20196;-67
2021/08/20 00:43:04;;;;;;;7.00;4.17;;;22.60;63.80;;;;;;5058941;28;20203;-67
2021/08/20 00:45:33;;;;;;;5.20;4.00;;;22.70;63.90;;;;;;5088066;28;20201;-67
2021/08/20 00:48:11;;;;;;;6.17;4.20;;;22.70;63.80;;;;;;5082737;28;20230;-67
2021/08/20 00:50:43;;;;;;;5.23;4.20;;;22.70;63.80;;;;;;5096813;28;20603;-67
2021/08/20 00:53:15;;;;;;;6.77;4.03;;;22.70;63.80;;;;;;5082672;28;20207;-67
2021/08/20 00:55:45;;;;;;;4.90;3.67;;;22.70;63.70;;;;;;5116672;27;20253;-67
2021/08/20 00:58:14;;;;;;;5.87;4.13;;;22.60;63.60;;;;;;5101732;27;20535;-68
2021/08/20 01:00:43;;;;;;;4.73;3.60;;;22.60;63.60;;;;;;5098547;28;20193;-67
2021/08/20 01:03:12;;;;;;;5.33;4.07;;;22.60;63.50;;;;;;5063391;28;20216;-68
2021/08/20 01:05:43;;;;;;;5.27;3.93;;;22.60;63.50;;;;;;5108174;28;20258;-66
2021/08/20 01:08:18;;;;;;;4.70;3.43;;;22.60;63.50;;;;;;5074443;28;20216;-67
2021/08/20 01:11:06;;;;;;;4.63;3.50;;;22.60;63.40;;;;;;5095850;28;20181;-68
2021/08/20 01:13:36;;;;;;;3.77;3.00;;;22.60;63.50;;;;;;5085350;28;20204;-67
2021/08/20 01:16:09;;;;;;;4.67;3.30;;;22.60;63.50;;;;;;5094519;28;20204;-68
2021/08/20 01:18:42;;;;;;;3.80;3.40;;;22.60;63.40;;;;;;5085464;28;20232;-67
2021/08/20 01:21:25;;;;;;;5.23;3.57;;;22.60;63.50;;;;;;5078050;28;20212;-67
2021/08/20 01:24:01;;;;;;;4.53;3.43;;;22.60;63.50;;;;;;5080520;28;20248;-67
2021/08/20 01:26:33;;;;;;;4.03;3.40;;;22.60;63.30;;;;;;5099830;28;20203;-67
2021/08/20 01:29:04;;;;;;;3.90;3.30;;;22.60;63.30;;;;;;5087650;28;20184;-67
2021/08/20 01:31:33;;;;;;;3.77;3.10;;;22.60;63.30;;;;;;5101859;28;20494;-67
2021/08/20 01:34:04;;;;;;;4.43;3.30;;;22.60;63.20;;;;;;5091528;28;20201;-67
2021/08/20 01:36:34;;;;;;;5.83;3.40;;;22.60;63.30;;;;;;5097921;28;20200;-68
2021/08/20 01:39:08;;;;;;;4.13;3.20;;;22.60;63.30;;;;;;5109886;28;20192;-67
2021/08/20 01:41:37;;;;;;;3.97;3.17;;;22.60;63.20;;;;;;5088318;28;20196;-67
2021/08/20 01:44:07;;;;;;;3.40;2.63;;;22.60;63.20;;;;;;5093791;28;20200;-67
2021/08/20 01:46:39;;;;;;;3.73;3.07;;;22.60;63.20;;;;;;5108384;28;20200;-68
2021/08/20 01:49:10;;;;;;;3.50;3.00;;;22.60;63.20;;;;;;5098658;28;20211;-68
2021/08/20 01:51:39;;;;;;;2.97;2.57;;;22.60;63.20;;;;;;5085601;28;20205;-68
2021/08/20 01:54:10;;;;;;;3.50;2.90;;;22.60;63.20;;;;;;5095029;28;20208;-67
2021/08/20 01:56:42;;;;;;;2.90;2.60;;;22.60;63.20;;;;;;5113733;28;20228;-67
2021/08/20 01:59:13;;;;;;;2.63;2.40;;;22.60;63.20;;;;;;5110873;28;20544;-67
2021/08/20 02:01:44;;;;;;;4.60;3.00;;;22.60;63.20;;;;;;5093644;28;20196;-67
2021/08/20 02:04:15;;;;;;;4.43;3.07;;;22.60;63.10;;;;;;5104120;28;20193;-69
2021/08/20 02:06:46;;;;;;;3.43;3.13;;;22.60;63.10;;;;;;5094358;28;20243;-67
2021/08/20 02:09:18;;;;;;;3.70;3.00;;;22.60;63.10;;;;;;5109341;28;20201;-68
2021/08/20 02:11:50;;;;;;;3.00;2.70;;;22.60;63.10;;;;;;5104328;28;20185;-67
2021/08/20 02:14:20;;;;;;;4.80;3.10;;;22.60;63.10;;;;;;5111086;28;20199;-68
2021/08/20 02:16:52;;;;;;;3.30;2.80;;;22.60;63.10;;;;;;5098672;28;20241;-68
2021/08/20 02:19:22;;;;;;;3.80;2.43;;;22.60;63.10;;;;;;5106996;28;20546;-67
2021/08/20 02:21:52;;;;;;;3.37;2.70;;;22.60;63.10;;;;;;5099341;28;20188;-68
2021/08/20 02:24:22;;;;;;;3.70;2.83;;;22.60;63.10;;;;;;5105267;28;20539;-67
2021/08/20 02:26:51;;;;;;;3.37;2.60;;;22.60;63.00;;;;;;5099501;28;20199;-67
2021/08/20 02:29:20;;;;;;;2.80;2.60;;;22.60;63.00;;;;;;5087150;28;20196;-67
2021/08/20 02:31:49;;;;;;;3.20;2.47;;;22.60;63.10;;;;;;5106643;28;20205;-68
2021/08/20 02:34:20;;;;;;;3.60;2.50;;;22.50;62.90;;;;;;5102628;28;20658;-67
2021/08/20 02:36:47;;;;;;;4.00;3.03;;;22.50;62.90;;;;;;5069480;28;20193;-68
2021/08/20 02:39:19;;;;;;;3.17;2.60;;;22.50;62.90;;;;;;5082708;28;20266;-67
2021/08/20 02:41:48;;;;;;;3.10;2.53;;;22.50;63.00;;;;;;5082307;28;20683;-67
2021/08/20 02:44:16;;;;;;;2.93;2.67;;;22.50;62.90;;;;;;5103450;28;20189;-67
2021/08/20 02:46:45;;;;;;;3.43;3.00;;;22.50;62.90;;;;;;5064166;28;20192;-67
2021/08/20 02:49:36;;;;;;;3.20;2.70;;;22.50;62.90;;;;;;5094907;28;20220;-67
2021/08/20 02:52:05;;;;;;;3.03;2.40;;;22.50;62.90;;;;;;5105587;28;20196;-68
2021/08/20 02:54:36;;;;;;;3.10;2.70;;;22.50;62.80;;;;;;5097099;28;20653;-67
2021/08/20 02:57:05;;;;;;;3.67;2.67;;;22.60;62.90;;;;;;5107138;28;20202;-67
2021/08/20 02:59:34;;;;;;;3.13;2.83;;;22.60;62.90;;;;;;5104658;28;20212;-67
2021/08/20 03:02:04;;;;;;;2.90;2.60;;;22.60;62.90;;;;;;5089652;28;20193;-67
2021/08/20 03:04:39;;;;;;;3.00;2.70;;;22.50;62.80;;;;;;5101227;28;20262;-67
2021/08/20 03:07:09;;;;;;;3.13;2.50;;;22.60;62.80;;;;;;5101509;28;20207;-67
2021/08/20 03:09:39;;;;;;;3.47;2.47;;;22.60;62.80;;;;;;5065540;28;20210;-67
2021/08/20 03:12:10;;;;;;;2.60;2.20;;;22.50;62.80;;;;;;5106997;28;20214;-67
2021/08/20 03:14:42;;;;;;;3.00;2.70;;;22.50;62.80;;;;;;5109969;28;20224;-67
2021/08/20 03:17:12;;;;;;;3.77;2.50;;;22.50;62.80;;;;;;5095819;28;20185;-68
2021/08/20 03:19:57;;;;;;;2.73;2.37;;;22.50;62.80;;;;;;5105230;28;20320;-67
2021/08/20 03:22:27;;;;;;;3.03;2.43;;;22.50;62.80;;;;;;5095472;28;20621;-67
2021/08/20 03:25:04;;;;;;;3.10;2.60;;;22.50;62.80;;;;;;5107025;27;20193;-67
2021/08/20 03:27:35;;;;;;;2.70;2.50;;;22.50;62.70;;;;;;5097532;28;20208;-67
2021/08/20 03:30:07;;;;;;;3.23;2.63;;;22.50;62.70;;;;;;5101947;28;20192;-67
2021/08/20 03:32:40;;;;;;;2.47;2.27;;;22.50;62.70;;;;;;5099870;28;20216;-67
2021/08/20 03:35:11;;;;;;;2.40;2.27;;;22.50;62.70;;;;;;5081244;28;20205;-68
2021/08/20 03:37:47;;;;;;;2.60;2.40;;;22.50;62.80;;;;;;5089542;28;20288;-67
2021/08/20 03:40:19;;;;;;;2.93;2.63;;;22.50;62.70;;;;;;5080828;28;20193;-67
2021/08/20 03:42:53;;;;;;;3.00;2.50;;;22.50;62.70;;;;;;5105868;28;20207;-68
2021/08/20 03:45:25;;;;;;;3.03;2.73;;;22.50;62.70;;;;;;5100539;28;20183;-67
2021/08/20 03:48:05;;;;;;;3.27;2.57;;;22.50;62.70;;;;;;5069884;28;20223;-67
2021/08/20 03:50:37;;;;;;;2.50;2.27;;;22.50;62.70;;;;;;5095676;28;20625;-68
2021/08/20 03:53:08;;;;;;;2.70;2.50;;;22.50;62.70;;;;;;5109987;28;20189;-68
2021/08/20 03:55:37;;;;;;;2.90;2.40;;;22.50;62.60;;;;;;5112497;28;20287;-68
2021/08/20 03:58:07;;;;;;;2.90;2.60;;;22.50;62.60;;;;;;5103873;28;20189;-68
2021/08/20 04:00:39;;;;;;;3.03;2.73;;;22.50;62.60;;;;;;5105684;27;20199;-68
2021/08/20 04:03:07;;;;;;;3.07;2.63;;;22.50;62.60;;;;;;5066539;28;20205;-67
2021/08/20 04:05:40;;;;;;;2.83;2.60;;;22.50;62.60;;;;;;5101810;28;20228;-67
2021/08/20 04:08:10;;;;;;;2.57;2.37;;;22.50;62.60;;;;;;5102407;28;20225;-68
2021/08/20 04:10:44;;;;;;;2.27;2.07;;;22.50;62.60;;;;;;5114491;28;20197;-67
2021/08/20 04:13:17;;;;;;;2.50;2.30;;;22.50;62.50;;;;;;5090442;28;20203;-67
2021/08/20 04:15:47;;;;;;;2.50;2.30;;;22.40;62.50;;;;;;5106467;28;20197;-67
2021/08/20 04:18:19;;;;;;;2.40;2.20;;;22.50;62.50;;;;;;5099280;28;20678;-67
2021/08/20 04:20:56;;;;;;;3.43;2.57;;;22.50;62.50;;;;;;5111365;28;20201;-67
2021/08/20 04:23:34;;;;;;;2.07;1.93;;;22.50;62.50;;;;;;5094015;28;20216;-68
2021/08/20 04:26:10;;;;;;;2.13;1.93;;;22.50;62.40;;;;;;5116449;28;20424;-68
2021/08/20 04:28:40;;;;;;;3.13;2.63;;;22.40;62.40;;;;;;5097098;28;20224;-67
2021/08/20 04:31:10;;;;;;;3.13;2.43;;;22.50;62.50;;;;;;5066130;28;20196;-68
2021/08/20 04:33:45;;;;;;;2.57;2.37;;;22.50;62.40;;;;;;5108853;28;20204;-67
2021/08/20 04:36:16;;;;;;;2.53;2.33;;;22.50;62.40;;;;;;5089855;28;20217;-68
2021/08/20 04:38:44;;;;;;;2.27;2.07;;;22.50;62.30;;;;;;5084663;28;20239;-72
2021/08/20 04:41:18;;;;;;;2.27;2.07;;;22.50;62.30;;;;;;5078150;28;20219;-68
2021/08/20 04:43:50;;;;;;;2.47;2.27;;;22.50;62.30;;;;;;5105520;28;20197;-68
2021/08/20 04:46:18;;;;;;;2.30;2.10;;;22.50;62.30;;;;;;5076753;28;20207;-68
2021/08/20 04:48:50;;;;;;;2.03;1.83;;;22.50;62.30;;;;;;5105687;28;20224;-68
2021/08/20 04:51:20;;;;;;;2.10;1.90;;;22.50;62.30;;;;;;5076481;28;20193;-68
2021/08/20 04:53:51;;;;;;;2.80;2.50;;;22.50;62.30;;;;;;5105100;28;20200;-68
2021/08/20 04:56:21;;;;;;;2.70;2.50;;;22.50;62.30;;;;;;5091583;28;20207;-68
2021/08/20 04:58:52;;;;;;;2.40;2.20;;;22.40;62.30;;;;;;5105450;28;20196;-69
2021/08/20 05:01:26;;;;;;;2.20;2.00;;;22.50;62.20;;;;;;5098153;28;20226;-69
2021/08/20 05:03:58;;;;;;;1.80;1.70;;;22.50;62.20;;;;;;5107801;28;20424;-69
2021/08/20 05:06:28;;;;;;;2.50;2.30;;;22.40;62.20;;;;;;5108133;28;20228;-69
2021/08/20 05:08:57;;;;;;;2.53;2.13;;;22.40;62.20;;;;;;5099459;28;20324;-69
2021/08/20 05:11:29;;;;;;;2.40;2.20;;;22.50;62.20;;;;;;5092739;28;20216;-68
2021/08/20 05:14:01;;;;;;;2.10;2.00;;;22.40;62.10;;;;;;5087779;28;20204;-68
2021/08/20 05:16:31;;;;;;;2.33;2.13;;;22.50;62.10;;;;;;5080206;28;20290;-68
2021/08/20 05:19:01;;;;;;;2.20;2.00;;;22.50;62.10;;;;;;5095250;28;20251;-68
2021/08/20 05:21:30;;;;;;;2.53;1.97;;;22.50;62.10;;;;;;5079625;28;20208;-68
2021/08/20 05:24:01;;;;;;;2.50;2.10;;;22.50;62.10;;;;;;5097502;28;20629;-68
2021/08/20 05:26:32;;;;;;;1.80;1.70;;;22.40;62.00;;;;;;5106487;28;20208;-68
2021/08/20 05:29:06;;;;;;;2.27;2.07;;;22.50;62.10;;;;;;5093753;28;20213;-68
2021/08/20 05:31:58;;;;;;;3.17;2.20;;;22.50;62.10;;;;;;5106593;28;20195;-68
2021/08/20 05:34:28;;;;;;;2.17;1.97;;;22.40;62.00;;;;;;5100466;28;20330;-68
2021/08/20 05:36:59;;;;;;;2.60;1.83;;;22.40;62.00;;;;;;5085011;28;20602;-68
2021/08/20 05:39:29;;;;;;;2.30;2.10;;;22.50;62.00;;;;;;5077108;28;20801;-68
2021/08/20 05:42:02;;;;;;;3.47;1.97;;;22.50;62.00;;;;;;5100455;28;20197;-68
2021/08/20 05:44:33;;;;;;;2.20;2.00;;;22.50;62.00;;;;;;5099289;28;20232;-69
2021/08/20 05:47:03;;;;;;;1.83;1.70;;;22.50;62.00;;;;;;5089655;28;20228;-68
2021/08/20 05:49:35;;;;;;;2.63;1.93;;;22.50;62.00;;;;;;5088402;28;20228;-68
2021/08/20 05:52:08;;;;;;;2.10;1.90;;;22.50;61.90;;;;;;5103589;28;20222;-68
2021/08/20 05:54:38;;;;;;;2.13;1.60;;;22.50;61.90;;;;;;5107856;28;20193;-68
2021/08/20 05:57:11;;;;;;;2.00;1.80;;;22.50;61.90;;;;;;5099737;28;20197;-68
2021/08/20 05:59:42;;;;;;;1.90;1.80;;;22.50;61.90;;;;;;5103295;28;20201;-68
2021/08/20 06:02:17;;;;;;;1.80;1.57;;;22.50;61.90;;;;;;5105809;28;20196;-68
2021/08/20 06:04:48;;;;;;;3.13;1.90;;;22.50;61.90;;;;;;5102084;28;20210;-67
2021/08/20 06:07:20;;;;;;;2.13;1.70;;;22.50;61.90;;;;;;5108253;28;20208;-67
2021/08/20 06:09:54;;;;;;;2.53;1.73;;;22.50;61.80;;;;;;5086063;28;20232;-67
2021/08/20 06:12:27;;;;;;;2.07;1.90;;;22.50;61.80;;;;;;5106766;28;20204;-68
2021/08/20 06:15:00;;;;;;;2.00;1.80;;;22.50;61.80;;;;;;5087181;28;20188;-68
2021/08/20 06:17:29;;;;;;;2.33;1.83;;;22.50;61.90;;;;;;5107190;28;20196;-67
2021/08/20 06:20:00;;;;;;;1.70;1.60;;;22.50;61.80;;;;;;5082213;28;20238;-67
2021/08/20 06:22:29;;;;;;;3.20;1.93;;;22.50;61.90;;;;;;5068770;28;20218;-67
2021/08/20 06:25:17;;;;;;;4.30;2.10;;;22.50;62.20;;;;;;5096516;28;20281;-67
2021/08/20 06:27:48;;;;;;;1.90;1.67;;;22.50;62.20;;;;;;5106392;28;20208;-68
2021/08/20 06:30:19;;;;;;;4.10;1.83;;;22.50;62.10;;;;;;5114987;27;20219;-67
2021/08/20 06:32:47;;;;;;;5.37;1.90;;;22.50;62.20;;;;;;5091653;28;20196;-68
2021/08/20 06:35:18;;;;;;;3.90;2.07;;;22.50;62.10;;;;;;5087198;28;20720;-68
2021/08/20 06:37:50;;;;;;;3.23;1.83;;;22.50;62.10;;;;;;5104793;27;20276;-68
2021/08/20 06:40:22;;;;;;;4.10;2.17;;;22.50;62.10;;;;;;5099570;28;20192;-68
2021/08/20 06:42:54;;;;;;;3.70;2.20;;;22.50;62.10;;;;;;5104665;28;20235;-68
2021/08/20 06:45:25;;;;;;;3.07;1.90;;;22.50;62.10;;;;;;5101368;27;20302;-69
2021/08/20 06:47:55;;;;;;;2.40;2.20;;;22.50;62.10;;;;;;5092158;28;20192;-69
2021/08/20 06:50:25;;;;;;;2.40;1.80;;;22.50;62.00;;;;;;5106076;27;20192;-68
2021/08/20 06:52:53;;;;;;;2.87;1.90;;;22.50;62.10;;;;;;5111244;27;20724;-68
2021/08/20 06:55:24;;;;;;;3.40;2.23;;;22.50;62.00;;;;;;5112066;28;20185;-68
2021/08/20 06:57:53;;;;;;;2.80;2.03;;;22.50;62.00;;;;;;5099376;27;20201;-68
2021/08/20 07:00:25;;;;;;;2.33;1.90;;;22.50;62.00;;;;;;5110762;27;20196;-68
2021/08/20 07:02:56;;;;;;;3.40;2.20;;;22.50;62.00;;;;;;5114137;27;20200;-68
2021/08/20 07:05:31;;;;;;;2.00;1.70;;;22.60;62.00;;;;;;5106841;28;20245;-68
2021/08/20 07:08:06;;;;;;;2.77;1.80;;;22.50;62.00;;;;;;5099460;27;20204;-69
2021/08/20 07:10:36;;;;;;;2.03;1.80;;;22.60;62.00;;;;;;5109637;27;20650;-68
2021/08/20 07:13:19;;;;;;;4.07;2.00;;;22.60;62.00;;;;;;5093778;27;20275;-68
2021/08/20 07:15:48;;;;;;;3.30;2.20;;;22.60;62.00;;;;;;5109341;27;20204;-67
2021/08/20 07:18:22;;;;;;;3.87;2.37;;;22.60;62.00;;;;;;5092090;28;20227;-68
2021/08/20 07:20:54;;;;;;;2.33;2.10;;;22.60;62.10;;;;;;5097922;28;20220;-68
2021/08/20 07:23:24;;;;;;;2.43;2.23;;;22.60;62.10;;;;;;5108363;28;20200;-68
2021/08/20 07:25:52;;;;;;;2.40;2.20;;;22.60;62.10;;;;;;5108733;28;20706;-68
2021/08/20 07:28:22;;;;;;;2.50;2.20;;;22.60;62.10;;;;;;5107636;28;20231;-69
2021/08/20 07:30:52;;;;;;;3.13;2.37;;;22.60;62.20;;;;;;5097915;28;20280;-68
2021/08/20 07:33:24;;;;;;;2.37;2.10;;;22.60;62.20;;;;;;5105224;28;20280;-68
2021/08/20 07:35:53;;;;;;;3.33;2.77;;;22.60;62.20;;;;;;5084191;28;20189;-68
2021/08/20 07:38:25;;;;;;;3.40;2.60;;;22.60;62.30;;;;;;5105950;28;20207;-68
2021/08/20 07:40:55;;;;;;;2.57;2.37;;;22.60;62.50;;;;;;5104424;28;20235;-68
2021/08/20 07:43:27;;;;;;;3.80;3.00;;;22.60;62.80;;;;;;5107728;28;20262;-67
2021/08/20 07:45:59;;;;;;;6.43;2.60;;;22.60;63.00;;;;;;5108638;28;20246;-67
2021/08/20 07:48:42;;;;;;;5.87;3.37;;;22.60;63.40;;;;;;5104301;28;20230;-68
2021/08/20 07:51:12;;;;;;;6.40;3.60;;;22.60;64.00;;;;;;5086580;28;20200;-68
2021/08/20 07:53:41;;;;;;;4.50;3.00;;;22.60;64.10;;;;;;5084653;28;20202;-68
2021/08/20 07:56:11;;;;;;;5.00;3.10;;;22.60;64.00;;;;;;5087670;28;20221;-68
2021/08/20 07:58:42;;;;;;;7.53;3.17;;;22.60;64.00;;;;;;5105924;27;20196;-69
2021/08/20 08:01:14;;;;;;;4.67;2.87;;;22.60;63.90;;;;;;5099914;28;20200;-68
2021/08/20 08:03:45;;;;;;;5.47;2.80;;;22.70;64.00;;;;;;5106367;28;20196;-68
2021/08/20 08:06:16;;;;;;;6.17;3.20;;;22.70;63.90;;;;;;5108678;28;20212;-68
2021/08/20 08:08:59;;;;;;;5.37;2.90;;;22.60;63.70;;;;;;5104543;28;20217;-68
2021/08/20 08:11:31;;;;;;;4.33;2.80;;;22.70;63.60;;;;;;5100915;28;20196;-68
2021/08/20 08:14:05;;;;;;;6.27;3.17;;;22.70;63.50;;;;;;5101595;28;20192;-68
2021/08/20 08:16:45;;;;;;;5.97;3.07;;;22.70;63.40;;;;;;5086870;28;20245;-69
2021/08/20 08:19:19;;;;;;;3.67;2.77;;;22.70;63.30;;;;;;5103542;28;20235;-69
2021/08/20 08:21:48;;;;;;;2.80;2.47;;;22.70;63.30;;;;;;5103566;28;20201;-68
2021/08/20 08:24:17;;;;;;;4.13;2.73;;;22.70;63.20;;;;;;5105289;28;20311;-68
2021/08/20 08:26:47;;;;;;;3.97;2.93;;;22.70;63.30;;;;;;5106638;28;20594;-68
2021/08/20 08:29:16;;;;;;;3.57;2.47;;;22.70;63.20;;;;;;5105322;28;20369;-68
2021/08/20 08:31:44;;;;;;;2.97;2.60;;;22.70;63.20;;;;;;5077806;28;20208;-68
2021/08/20 08:34:15;;;;;;;4.13;2.80;;;22.70;63.10;;;;;;5103957;28;20323;-68
2021/08/20 08:36:48;;;;;;;3.03;2.60;;;22.70;63.20;;;;;;5104562;28;20222;-68
2021/08/20 08:39:19;;;;;;;3.57;2.33;;;22.70;63.20;;;;;;5086842;27;20212;-68
2021/08/20 08:41:51;;;;;;;4.93;3.03;;;22.70;63.00;;;;;;5093543;28;20803;-69
2021/08/20 08:44:23;;;;;;;4.37;2.87;;;22.70;62.80;;;;;;5088445;28;20278;-69
2021/08/20 08:46:52;;;;;;;4.37;2.90;;;22.80;62.90;;;;;;5101168;28;20244;-69
2021/08/20 08:49:24;;;;;;;3.47;2.80;;;22.70;62.90;;;;;;5104008;27;20312;-68
2021/08/20 08:51:53;;;;;;;5.20;2.77;;;22.70;62.90;;;;;;5068977;28;20204;-68
2021/08/20 08:54:26;;;;;;;3.83;2.90;;;22.70;63.00;;;;;;5101720;28;20199;-68
2021/08/20 08:56:54;;;;;;;9.20;3.93;;;22.80;62.90;;;;;;5096454;28;20211;-68
2021/08/20 08:59:25;;;;;;;30.57;9.43;;;22.70;63.10;;;;;;5102759;28;20202;-68
2021/08/20 09:01:55;;;;;;;33.53;11.57;;;22.80;63.50;;;;;;5105905;28;20230;-75
2021/08/20 09:04:26;;;;;;;35.60;11.37;;;22.80;64.40;;;;;;5099576;28;20217;-75
2021/08/20 09:06:55;;;;;;;34.43;11.03;;;22.80;64.50;;;;;;5100446;28;20216;-76
2021/08/20 09:09:27;;;;;;;38.50;12.27;;;22.80;64.30;;;;;;5084922;28;20212;-76
2021/08/20 09:12:06;;;;;;;33.47;11.10;;;22.90;64.40;;;;;;5105281;28;20189;-75
2021/08/20 09:14:37;;;;;;;30.73;10.47;;;22.80;64.30;;;;;;5085108;28;20200;-75
2021/08/20 09:17:10;;;;;;;27.23;10.37;;;22.80;64.30;;;;;;5085452;28;20196;-75
2021/08/20 09:19:41;;;;;;;26.43;10.03;;;22.90;64.40;;;;;;5083699;28;20220;-75
2021/08/20 09:22:13;;;;;;;25.33;9.33;;;22.90;64.40;;;;;;5104053;28;20768;-75
2021/08/20 09:24:43;;;;;;;25.03;10.03;;;22.90;64.40;;;;;;5102442;28;20196;-75
2021/08/20 09:27:21;;;;;;;23.90;9.33;;;22.90;64.60;;;;;;5086280;28;20196;-76
2021/08/20 09:30:07;;;;;;;23.73;8.87;;;22.90;64.40;;;;;;5106274;28;20225;-76
2021/08/20 09:33:02;;;;;;;19.23;8.60;;;22.90;64.40;;;;;;5102255;28;20204;-76
2021/08/20 09:35:41;;;;;;;15.43;7.37;;;22.90;64.30;;;;;;5103875;28;20199;-76
2021/08/20 09:38:14;;;;;;;20.20;7.63;;;23.00;64.40;;;;;;5090663;28;20196;-76
2021/08/20 09:40:55;;;;;;;19.40;7.93;;;23.00;64.40;;;;;;5108082;28;20200;-76
2021/08/20 09:43:33;;;;;;;17.13;7.80;;;23.00;64.30;;;;;;5074350;28;20202;-77
2021/08/20 09:46:20;;;;;;;20.73;7.53;;;23.00;64.20;;;;;;5067781;28;20646;-75
2021/08/20 09:49:00;;;;;;;15.83;7.73;;;23.00;64.20;;;;;;5106667;28;20259;-76
2021/08/20 09:51:49;;;;;;;17.43;7.13;;;23.00;64.20;;;;;;5098635;28;20201;-76
2021/08/20 09:54:31;;;;;;;14.30;7.00;;;23.10;64.30;;;;;;5105798;28;20224;-76
2021/08/20 09:57:04;;;;;;;14.63;6.80;;;23.00;64.20;;;;;;5093274;28;20206;-75
2021/08/20 09:59:35;;;;;;;14.60;6.83;;;23.00;64.10;;;;;;5093904;28;20210;-75
2021/08/20 10:02:10;;;;;;;12.13;6.13;;;23.10;64.10;;;;;;5108458;28;20283;-76
2021/08/20 10:04:41;;;;;;;11.57;6.37;;;23.10;64.10;;;;;;5106396;28;20231;-75
2021/08/20 10:07:12;;;;;;;13.53;6.50;;;23.10;64.10;;;;;;5089857;28;20200;-75
2021/08/20 10:09:49;;;;;;;9.73;6.47;;;23.10;64.00;;;;;;5088893;28;20819;-75
2021/08/20 10:12:23;;;;;;;10.77;5.90;;;23.10;64.00;;;;;;5106568;28;20200;-76
2021/08/20 10:14:54;;;;;;;8.70;5.47;;;23.10;63.90;;;;;;5099466;28;20219;-76
2021/08/20 10:17:31;;;;;;;10.63;6.37;;;23.10;63.90;;;;;;5103357;28;20677;-75
2021/08/20 10:19:59;;;;;;;8.67;6.00;;;23.10;63.90;;;;;;5110437;28;20224;-75
2021/08/20 10:22:31;;;;;;;8.70;5.47;;;23.10;63.80;;;;;;5092438;28;20206;-75
2021/08/20 10:25:02;;;;;;;11.53;5.73;;;23.10;63.80;;;;;;5107445;28;20234;-75
2021/08/20 10:27:47;;;;;;;8.70;5.73;;;23.10;63.80;;;;;;5089689;28;20231;-75
2021/08/20 10:30:19;;;;;;;8.43;6.00;;;23.10;63.80;;;;;;5107291;28;20293;-75
2021/08/20 10:33:04;;;;;;;7.30;5.67;;;23.20;63.80;;;;;;5109916;28;20193;-75
2021/08/20 10:35:57;;;;;;;6.53;5.63;;;23.20;63.70;;;;;;5079643;28;20552;-75
2021/08/20 10:38:44;;;;;;;8.77;6.03;;;23.20;63.60;;;;;;5078563;28;20299;-74
2021/08/20 10:41:25;;;;;;;7.33;5.63;;;23.20;63.60;;;;;;5100271;28;20208;-74
2021/08/20 10:44:17;;;;;;;8.13;6.00;;;23.20;63.50;;;;;;5102875;28;20193;-75
2021/08/20 10:46:50;;;;;;;8.57;6.13;;;23.20;63.50;;;;;;5104755;28;20219;-75
2021/08/20 10:49:24;;;;;;;10.23;6.17;;;23.20;63.50;;;;;;5106313;27;20516;-74
2021/08/20 10:52:00;;;;;;;6.97;5.77;;;23.20;63.50;;;;;;5073879;28;20658;-74
2021/08/20 10:54:40;;;;;;;6.90;5.30;;;23.20;63.50;;;;;;5107939;28;20199;-74
2021/08/20 10:57:42;;;;;;;7.63;5.13;;;23.30;63.50;;;;;;5111411;27;20192;-73
2021/08/20 11:00:27;;;;;;;6.53;4.97;;;23.30;63.30;;;;;;5110374;28;20287;-75
2021/08/20 11:03:03;;;;;;;8.60;5.40;;;23.30;63.40;;;;;;5088934;28;20196;-75
2021/08/20 11:05:50;;;;;;;5.70;4.90;;;23.30;63.40;;;;;;5080656;28;20200;-75
2021/08/20 11:08:38;;;;;;;6.73;5.10;;;23.30;63.40;;;;;;5106772;28;20231;-75
2021/08/20 11:11:45;;;;;;;6.00;4.97;;;23.30;63.30;;;;;;5104673;28;20246;-75
2021/08/20 11:14:33;;;;;;;6.83;4.77;;;23.30;63.30;;;;;;5107101;28;20196;-77
2021/08/20 11:17:07;;;;;;;5.87;4.20;;;23.30;63.30;;;;;;5088281;28;20253;-75
2021/08/20 11:19:56;;;;;;;4.93;4.43;;;23.30;63.20;;;;;;5091741;28;20229;-76
2021/08/20 11:22:31;;;;;;;5.40;4.57;;;23.30;63.20;;;;;;5075210;28;20248;-75
2021/08/20 11:25:20;;;;;;;6.57;4.03;;;23.30;63.20;;;;;;5035399;28;20217;-75
2021/08/20 11:28:02;;;;;;;5.60;4.43;;;23.30;63.20;;;;;;5085353;28;20186;-75
2021/08/20 11:31:08;;;;;;;4.80;4.00;;;23.30;63.30;;;;;;5071034;28;20223;-75
2021/08/20 11:33:47;;;;;;;5.97;4.03;;;23.30;63.10;;;;;;5079803;28;20208;-75
2021/08/20 11:36:23;;;;;;;5.07;4.10;;;23.30;63.20;;;;;;5068994;28;20209;-75
2021/08/20 11:39:01;;;;;;;4.50;3.77;;;23.40;63.10;;;;;;5084374;28;20646;-75
2021/08/20 11:41:37;;;;;;;4.40;3.97;;;23.30;63.10;;;;;;5065984;28;20204;-75
2021/08/20 11:44:27;;;;;;;4.17;3.77;;;23.40;63.10;;;;;;5084025;28;20209;-74
2021/08/20 11:46:54;;;;;;;3.63;3.23;;;23.40;63.10;;;;;;5087110;28;20212;-75
2021/08/20 11:49:35;;;;;;;4.77;3.40;;;23.40;63.10;;;;;;5077004;28;20200;-75
2021/08/20 11:52:11;;;;;;;3.87;3.00;;;23.40;63.00;;;;;;5064470;28;20967;-75
2021/08/20 11:54:43;;;;;;;3.60;3.20;;;23.40;63.10;;;;;;5064041;28;20235;-74
2021/08/20 11:57:12;;;;;;;4.30;3.37;;;23.40;63.00;;;;;;5085774;28;20254;-74
2021/08/20 12:00:03;;;;;;;4.30;3.37;;;23.40;63.00;;;;;;5086997;28;20212;-74
2021/08/20 12:02:33;;;;;;;5.37;3.10;;;23.40;63.00;;;;;;5072803;28;20627;-74
2021/08/20 12:05:24;;;;;;;3.33;3.03;;;23.40;63.10;;;;;;5083084;28;20231;-74
2021/08/20 12:07:52;;;;;;;3.00;2.60;;;23.50;63.10;;;;;;5078686;28;20201;-74
2021/08/20 12:10:26;;;;;;;3.07;2.73;;;23.40;63.00;;;;;;5080384;28;20720;-75
2021/08/20 12:12:58;;;;;;;3.10;2.80;;;23.50;63.10;;;;;;5078816;28;20201;-74
2021/08/20 12:15:29;;;;;;;3.03;2.73;;;23.50;63.20;;;;;;5070217;28;20197;-74
2021/08/20 12:18:27;;;;;;;4.50;2.70;;;23.50;63.20;;;;;;5087903;28;20787;-75
2021/08/20 12:21:17;;;;;;;2.60;2.40;;;23.50;63.30;;;;;;5104063;28;20275;-75
2021/08/20 12:24:03;;;;;;;3.40;2.63;;;23.50;63.50;;;;;;5087217;28;20269;-75
2021/08/20 12:26:31;;;;;;;2.50;2.30;;;23.50;63.50;;;;;;5087657;28;20212;-74
2021/08/20 12:29:13;;;;;;;2.43;2.23;;;23.50;63.40;;;;;;5080669;28;20215;-74
2021/08/20 12:32:01;;;;;;;2.10;2.00;;;23.60;63.50;;;;;;5107909;28;20228;-74
2021/08/20 12:34:37;;;;;;;2.60;2.20;;;23.60;63.60;;;;;;5109177;27;20637;-75
2021/08/20 12:37:17;;;;;;;2.50;2.27;;;23.60;63.70;;;;;;5077995;27;20518;-75
2021/08/20 12:39:46;;;;;;;2.63;2.30;;;23.60;63.50;;;;;;5082669;28;20196;-75
2021/08/20 12:42:30;;;;;;;2.07;1.90;;;23.50;64.10;;;;;;5108582;28;20197;-75
2021/08/20 12:45:20;;;;;;;2.43;2.00;;;23.60;63.50;;;;;;5104662;28;20227;-75
2021/08/20 12:48:03;;;;;;;2.27;2.03;;;23.60;63.50;;;;;;5102636;28;20207;-75
2021/08/20 12:50:36;;;;;;;2.30;2.10;;;23.60;63.50;;;;;;5102431;28;20212;-77
2021/08/20 12:53:11;;;;;;;2.30;2.10;;;23.60;63.50;;;;;;5100740;28;20219;-77
2021/08/20 12:55:46;;;;;;;2.63;2.20;;;23.60;63.40;;;;;;5098925;28;20233;-74
2021/08/20 12:58:24;;;;;;;2.60;1.83;;;23.60;63.40;;;;;;5106802;28;20257;-74
2021/08/20 13:00:57;;;;;;;2.37;2.10;;;23.70;63.50;;;;;;5089635;28;20200;-75
2021/08/20 13:03:26;;;;;;;2.03;1.80;;;23.70;63.50;;;;;;5104346;28;21734;-75
2021/08/20 13:06:06;;;;;;;2.27;2.07;;;23.70;63.50;;;;;;5071031;28;20188;-75
2021/08/20 13:08:40;;;;;;;2.10;1.90;;;23.70;63.40;;;;;;5105692;28;20691;-74
2021/08/20 13:11:12;;;;;;;2.00;1.80;;;23.70;63.50;;;;;;5102379;28;20224;-76
2021/08/20 13:13:44;;;;;;;1.77;1.67;;;23.70;64.20;;;;;;5068508;28;20520;-76
2021/08/20 13:16:16;;;;;;;1.93;1.80;;;23.70;63.40;;;;;;5066624;28;20274;-75
2021/08/20 13:18:49;;;;;;;1.87;1.73;;;23.70;63.60;;;;;;5079801;28;20243;-75